Aviation Digital Data Service (ADDS)

Output produced by METARs form (1129 UTC 19 January 2019)
found at http://www.aviationweather.gov/metar/data/
 
UATE 191100Z 33007MPS CAVOK 04/M04 Q1018 R30/0///70 NOSIG RMK QFE762/1016
TAF UATE 191105Z 1912/2012 33008MPS 9999 SCT015 TX06/2010Z TNM02/2003Z
       
UACC 191100Z 21006MPS 4400 SG BR OVC004 M03/M03 Q1016 R22/95//50 TEMPO 2000 -SN BR BKN004 RMK QBB120 QFE731/0975
TAF UACC 191100Z 1912/2012 20006MPS 5000 BR OVC003 TXM02/1915Z TNM04/2002Z 
     TEMPO 1912/1918 1000 -FZDZ BR BKN002 
     TEMPO 1918/2004 0400 -FZDZ FZFG VV002 
     BECMG 2006/2007 16004MPS 6000 NSW 
     TEMPO 2006/2012 2000 -SN BR BKN003
       
UATG 191100Z 28003MPS 5000 BR SCT010 M05/M05 Q1018 R14/CLRD70 NOSIG RMK QFE765/1020
TAF UATG 191102Z 1912/2012 26005MPS 2000 BR BKN005 OVC010 TX02/2010Z TNM04/2003Z

     TEMPO 1914/1924 0300 -SG FZFG OVC001 
     TEMPO 2000/2006 0300 -SG FZFG OVC001 
     BECMG 2006/2008 32007MPS 
     TEMPO 2008/2012 3000 -SHSN BR BKN005 OVC020CB
       
UAAH 191100Z 06006MPS CAVOK M08/M11 Q1022 NOSIG RMK QFE729/0972
TAF UAAH 190811Z 1909/1918 07008MPS 6000 DRSN SCT033 BKN100
       
UAKK 191100Z 18005MPS 9999 BKN012 OVC021 M02/M05 Q1018 R23/920555 NOSIG RMK QFE717/0956
TAF UAKK 191100Z 1912/2012 18005MPS 9999 BKN010 OVC100 TXM02/2009Z TNM08/1923Z 
     TEMPO 1912/1924 2000 -SNRA BR SCT003 BKN005 
     BECMG 2000/2002 14005MPS 
     BECMG 2002/2004 SCT015 BKN030 
     TEMPO 2002/2012 VRB02MPS
       
UAUU 191100Z 00000MPS CAVOK M14/M16 Q1014 R33/350141 NOSIG RMK QFE745/0993
TAF UAUU 190800Z 1909/1918 VRB02MPS 6000 SCT005 
     TEMPO 1912/1915 2000 BR BKN003 
     TEMPO 1915/1918 0400 FZFG VV002
       
UASS 191100Z 16007MPS CAVOK M03/M08 Q1026 R26/82//55 NOSIG RMK QFE751/1002
TAF UASS 190800Z 1909/1918 16008MPS CAVOK 
     TEMPO 1909/1915 16009G14MPS DRSN
       
UAII 191100Z 35003MPS 320V020 CAVOK 09/04 Q1015 R10/0///70 NOSIG RMK QFE726/0968
TAF UAII 191100Z 1912/2012 23005MPS 4000 BR SCT010 BKN030CB OVC100 TX04/2008Z
TN00/2001Z 
     TEMPO 1912/1915 35005G10MPS 1500 BR FU BKN010 OVC025CB 
     TEMPO 1915/1921 19008G13MPS 0500 SHRA FG BKN002 OVC020CB 
     TEMPO 1921/2005 18005G10MPS 0400 SNRA FG BKN002 OVC020 
     TEMPO 2005/2012 20007G12MPS 1000 SNRA BR BKN003 OVC015
       
UARR 191100Z 18003MPS 6000 BKN004 OVC026 M05/M06 Q1014 R22/390045 TEMPO BKN003 RMK QBB130 QFE757/1010
TAF UARR 190800Z 1909/1918 18007MPS 3000 BR BKN010 
     TEMPO 1909/1912 2000 BKN005 
     TEMPO 1912/1918 20005G10MPS 1000 -SN BR BKN003
       
UASK 191100Z 15005MPS 9999 BKN210 03/M09 Q1025 R12/820250 NOSIG RMK QFE743/0991
TAF UASK 190800Z 1909/1918 13009G14MPS 9999 DRSN BKN100 
     TEMPO 1909/1915 16013G18MPS 3000 BLSN
       
UAKD 191100Z 18006MPS 9999 OVC009 00/M01 Q1017 R22/39//45 NOSIG RMK QFE729/0973
TAF UAKD 190800Z 1909/1918 19006MPS 5000 -FZDZ BR OVC005 
     TEMPO 1909/1912 1000 -RASN BR OVC003 
     TEMPO 1912/1918 0500 -SNRA FZFG VV002